Time;durP1;ratioP1;P1;durP2;ratioP2;P2;SDS_P1;SDS_P2;PMS_P1;PMS_P2;Temp;Humidity;BMP_temperature;BMP_pressure;BME280_temperature;BME280_humidity;BME280_pressure;Samples;Min_cycle;Max_cycle;Signal;HPM_P1;HPM_P2
2021/09/14 00:02:20;;;;;;;1999.90;999.90;;;17.70;99.90;;;;;;5077163;28;20398;-84
2021/09/14 00:04:46;;;;;;;1999.90;999.90;;;17.60;99.90;;;;;;5077511;28;20156;-85
2021/09/14 00:07:11;;;;;;;1999.90;999.90;;;17.60;99.90;;;;;;5077932;28;20755;-86
2021/09/14 00:09:37;;;;;;;1999.90;999.90;;;17.50;99.90;;;;;;5076855;28;20402;-86
2021/09/14 00:12:04;;;;;;;1999.90;999.90;;;17.50;99.90;;;;;;5077244;28;20171;-85
2021/09/14 00:14:33;;;;;;;1999.90;999.90;;;17.50;99.90;;;;;;5076193;28;20406;-85
2021/09/14 00:16:59;;;;;;;1999.90;999.90;;;17.50;99.90;;;;;;5076007;28;20446;-85
2021/09/14 00:19:27;;;;;;;1999.90;999.90;;;17.40;99.90;;;;;;5077184;28;20443;-84
2021/09/14 00:21:56;;;;;;;1999.90;999.90;;;17.30;99.90;;;;;;5076154;28;20164;-85
2021/09/14 00:24:22;;;;;;;1999.90;999.90;;;17.30;99.90;;;;;;5077107;28;20533;-85
2021/09/14 00:26:47;;;;;;;1999.90;999.90;;;17.20;99.90;;;;;;5075837;28;20473;-85
2021/09/14 00:29:16;;;;;;;1999.90;999.90;;;17.20;99.90;;;;;;5076653;28;20160;-84
2021/09/14 00:31:41;;;;;;;1999.90;999.90;;;17.20;99.90;;;;;;5077325;28;20254;-86
2021/09/14 00:34:12;;;;;;;1999.90;999.90;;;17.20;99.90;;;;;;5076803;28;20974;-84
2021/09/14 00:36:38;;;;;;;1999.90;999.90;;;17.20;99.90;;;;;;5076774;28;20184;-85
2021/09/14 00:39:04;;;;;;;1999.90;999.90;;;17.20;99.90;;;;;;5075661;28;20455;-85
2021/09/14 00:41:32;;;;;;;1999.90;999.90;;;17.20;99.90;;;;;;5076031;28;20636;-85
2021/09/14 00:44:02;;;;;;;1999.90;999.90;;;17.20;99.90;;;;;;5077025;28;20240;-86
2021/09/14 00:46:28;;;;;;;1999.90;999.90;;;17.20;99.90;;;;;;5076470;28;20453;-85
2021/09/14 00:48:56;;;;;;;1999.90;999.90;;;17.20;99.90;;;;;;5076534;28;20398;-84
2021/09/14 00:51:22;;;;;;;1999.90;999.90;;;17.20;99.90;;;;;;5075510;28;20521;-85
2021/09/14 00:53:48;;;;;;;1999.90;999.90;;;17.20;99.90;;;;;;5076688;28;20829;-85
2021/09/14 00:56:18;;;;;;;1999.90;999.90;;;17.20;99.90;;;;;;5076422;28;20448;-85
2021/09/14 00:58:47;;;;;;;1999.90;999.90;;;17.20;99.90;;;;;;5075579;28;20402;-85
2021/09/14 01:01:13;;;;;;;1999.90;999.90;;;17.20;99.90;;;;;;5076674;28;20493;-84
2021/09/14 01:03:38;;;;;;;1999.90;999.90;;;17.20;99.90;;;;;;5075168;28;20508;-85
2021/09/14 01:06:05;;;;;;;1999.90;999.90;;;17.20;99.90;;;;;;5076409;28;20160;-85
2021/09/14 01:08:31;;;;;;;1999.90;999.90;;;17.20;99.90;;;;;;5076481;28;20546;-85
2021/09/14 01:11:01;;;;;;;1999.90;999.90;;;17.10;99.90;;;;;;5076689;28;20408;-85
2021/09/14 01:13:28;;;;;;;1999.90;999.90;;;17.10;99.90;;;;;;5076436;28;20411;-85
2021/09/14 01:15:53;;;;;;;1999.90;999.90;;;17.10;99.90;;;;;;5076010;28;20406;-85
2021/09/14 01:18:19;;;;;;;1999.90;999.90;;;17.10;99.90;;;;;;5076185;28;20442;-85
2021/09/14 01:20:45;;;;;;;1999.90;999.90;;;17.00;99.90;;;;;;5076168;28;20635;-86
2021/09/14 01:23:13;;;;;;;1999.90;999.90;;;17.00;99.90;;;;;;5076796;28;20196;-85
2021/09/14 01:25:45;;;;;;;1999.90;999.90;;;17.00;99.90;;;;;;5076063;28;20184;-85
2021/09/14 01:28:13;;;;;;;1999.90;999.90;;;17.00;99.90;;;;;;5076336;28;20429;-86
2021/09/14 01:30:39;;;;;;;1999.90;999.90;;;17.00;99.90;;;;;;5076207;28;20406;-86
2021/09/14 01:33:08;;;;;;;1999.90;999.90;;;17.00;99.90;;;;;;5075311;28;20909;-85
2021/09/14 01:35:34;;;;;;;1999.90;999.90;;;16.90;99.90;;;;;;5076277;28;20160;-85
2021/09/14 01:38:07;;;;;;;1999.90;999.90;;;16.90;99.90;;;;;;5076359;28;20914;-86
2021/09/14 01:40:46;;;;;;;1999.90;999.90;;;16.90;99.90;;;;;;5073769;28;20868;-85
2021/09/14 01:43:12;;;;;;;1999.90;999.90;;;16.90;99.90;;;;;;5074443;28;20398;-85
2021/09/14 01:45:45;;;;;;;1999.90;999.90;;;16.80;99.90;;;;;;5075777;28;20417;-86
2021/09/14 01:48:26;;;;;;;1999.90;999.90;;;16.80;99.90;;;;;;5074678;28;20168;-85
2021/09/14 01:57:53;;;;;;;1999.90;999.90;;;16.70;99.90;;;;;;5002506;28;20883;-88
2021/09/14 02:59:06;;;;;;;1999.90;999.90;;;16.20;99.90;;;;;;5045516;28;20478;-88
2021/09/14 03:02:34;;;;;;;1999.90;999.90;;;16.10;99.90;;;;;;4993039;28;20420;-89
2021/09/14 03:06:03;;;;;;;120.33;97.63;;;16.10;99.90;;;;;;4981058;28;20473;-88
2021/09/14 03:20:09;;;;;;;238.87;221.80;;;16.00;99.90;;;;;;5050550;28;21000;-89
2021/09/14 03:23:29;;;;;;;245.93;229.13;;;15.90;99.90;;;;;;5056133;28;20490;-89
2021/09/14 03:33:16;;;;;;;192.57;176.93;;;15.60;99.90;;;;;;5028487;28;20478;-89
2021/09/14 03:36:26;;;;;;;213.60;196.93;;;15.60;99.90;;;;;;5017081;28;20906;-89
2021/09/14 03:45:59;;;;;;;182.50;167.47;;;15.90;99.90;;;;;;5003139;28;20494;-89
2021/09/14 03:49:12;;;;;;;198.33;183.37;;;16.00;99.90;;;;;;5034186;28;20872;-89
2021/09/14 03:52:33;;;;;;;196.00;181.07;;;16.00;99.90;;;;;;5043920;28;20413;-89
2021/09/14 03:59:02;;;;;;;233.97;217.80;;;16.00;99.90;;;;;;4964355;28;20492;-88
2021/09/14 04:05:41;;;;;;;227.83;211.93;;;15.90;99.90;;;;;;4902607;29;20862;-89
2021/09/14 04:18:23;;;;;;;;;;;;;;;;;;;;;
2021/09/14 04:21:39;;;;;;;247.77;231.20;;;15.80;99.90;;;;;;4986102;28;20797;-89
2021/09/14 04:52:42;;;;;;;229.10;213.33;;;15.60;99.90;;;;;;3880583;23;20566;-88
2021/09/14 04:55:43;;;;;;;225.30;209.13;;;15.60;99.90;;;;;;5073840;28;20419;-88
2021/09/14 04:58:32;;;;;;;;;;;;;;;;;;;;;
2021/09/14 05:25:46;;;;;;;219.57;204.27;;;15.50;99.90;;;;;;4935158;29;20410;-88
2021/09/14 05:28:40;;;;;;;;;;;;;;;;;;;;;
2021/09/14 05:31:38;;;;;;;237.23;220.60;;;15.60;99.90;;;;;;4934333;29;20420;-89
2021/09/14 05:34:26;;;;;;;210.93;195.37;;;15.60;99.90;;;;;;4934516;29;20413;-89
2021/09/14 05:40:18;;;;;;;191.43;176.57;;;15.60;99.90;;;;;;5057107;28;20408;-87
2021/09/14 05:42:53;;;;;;;194.07;179.00;;;15.60;99.90;;;;;;5073622;28;20412;-87
2021/09/14 05:45:28;;;;;;;222.73;207.23;;;15.60;99.90;;;;;;5073475;28;20464;-87
2021/09/14 05:48:01;;;;;;;180.83;166.37;;;15.70;99.90;;;;;;5072109;28;20447;-87
2021/09/14 05:50:27;;;;;;;174.87;160.50;;;15.70;99.90;;;;;;5073851;28;20406;-87
2021/09/14 05:52:53;;;;;;;185.70;170.67;;;15.70;99.90;;;;;;5073881;28;20879;-87
2021/09/14 05:55:45;;;;;;;188.37;173.70;;;15.80;99.90;;;;;;5074069;28;20401;-88
2021/09/14 05:58:17;;;;;;;177.20;162.63;;;15.80;99.90;;;;;;5027985;28;20483;-88
2021/09/14 06:00:48;;;;;;;188.03;172.17;;;15.80;99.90;;;;;;5072405;28;20796;-89
2021/09/14 06:03:14;;;;;;;164.10;149.73;;;15.80;99.90;;;;;;5073265;28;20412;-88
2021/09/14 06:05:56;;;;;;;187.03;171.60;;;15.80;99.90;;;;;;5073861;28;20934;-88
2021/09/14 06:08:34;;;;;;;188.63;173.50;;;15.90;99.90;;;;;;5072313;28;20396;-87
2021/09/14 06:11:00;;;;;;;202.10;185.93;;;15.90;99.90;;;;;;5073402;28;20404;-87
2021/09/14 06:13:26;;;;;;;206.47;190.00;;;16.00;99.90;;;;;;5073900;28;20416;-87
2021/09/14 06:15:51;;;;;;;181.83;166.80;;;16.00;99.90;;;;;;5073382;28;20162;-87
2021/09/14 06:18:17;;;;;;;199.63;183.00;;;16.00;99.90;;;;;;5072057;28;20188;-87
2021/09/14 06:20:43;;;;;;;280.97;259.80;;;15.90;99.90;;;;;;5072122;28;20170;-87
2021/09/14 06:23:09;;;;;;;346.37;321.60;;;16.00;99.90;;;;;;5072362;28;20231;-87
2021/09/14 06:25:37;;;;;;;352.53;328.50;;;16.00;99.90;;;;;;5072806;28;20395;-87
2021/09/14 06:28:03;;;;;;;385.60;358.70;;;16.00;99.90;;;;;;5071936;28;20555;-87
2021/09/14 06:30:29;;;;;;;400.27;372.47;;;16.10;99.90;;;;;;5073220;28;20413;-87
2021/09/14 06:32:55;;;;;;;440.57;409.87;;;16.10;99.90;;;;;;5071975;28;20410;-87
2021/09/14 06:35:20;;;;;;;355.27;330.33;;;16.20;99.90;;;;;;5071863;28;20170;-88
2021/09/14 06:37:46;;;;;;;432.33;401.87;;;16.10;99.90;;;;;;5073025;28;20212;-88
2021/09/14 06:40:12;;;;;;;416.93;388.70;;;16.00;99.90;;;;;;5071919;28;20163;-88
2021/09/14 06:42:38;;;;;;;448.90;417.97;;;16.00;99.90;;;;;;5072514;28;20540;-88
2021/09/14 06:45:04;;;;;;;485.27;453.20;;;16.10;99.90;;;;;;5072201;28;20643;-88
2021/09/14 06:47:30;;;;;;;500.33;467.57;;;16.10;99.90;;;;;;5073014;28;20186;-88
2021/09/14 06:49:55;;;;;;;489.70;457.50;;;16.10;99.90;;;;;;5073065;28;20484;-89
2021/09/14 06:52:30;;;;;;;486.43;454.20;;;16.10;99.90;;;;;;5073749;28;20637;-89
2021/09/14 06:54:58;;;;;;;427.03;397.33;;;16.20;99.90;;;;;;5073261;28;20159;-89
2021/09/14 06:57:27;;;;;;;436.27;405.67;;;16.30;99.90;;;;;;5072780;28;20804;-88
2021/09/14 06:59:53;;;;;;;451.13;421.33;;;16.40;99.90;;;;;;5071300;28;20489;-89
2021/09/14 07:02:18;;;;;;;459.60;428.37;;;16.50;99.90;;;;;;5073057;28;20405;-89
2021/09/14 07:04:45;;;;;;;492.07;458.93;;;16.50;99.90;;;;;;5071959;28;20198;-89
2021/09/14 07:07:10;;;;;;;454.13;423.60;;;16.50;99.90;;;;;;5071849;28;20191;-89
2021/09/14 07:09:36;;;;;;;441.80;411.40;;;16.40;99.90;;;;;;5072921;28;20402;-89
2021/09/14 07:12:10;;;;;;;432.73;402.63;;;16.50;99.90;;;;;;5072976;28;20247;-89
2021/09/14 07:14:38;;;;;;;432.40;402.30;;;16.50;99.90;;;;;;5073517;28;20393;-88
2021/09/14 07:17:04;;;;;;;421.63;392.67;;;16.50;99.90;;;;;;5071599;28;20485;-88
2021/09/14 07:19:30;;;;;;;435.27;404.60;;;16.60;99.90;;;;;;5071476;28;20445;-89
2021/09/14 07:21:59;;;;;;;407.57;378.83;;;16.60;99.90;;;;;;5071560;28;20447;-88
2021/09/14 07:24:24;;;;;;;401.17;373.70;;;16.60;99.90;;;;;;5071764;28;20164;-89
2021/09/14 07:26:50;;;;;;;440.83;410.20;;;16.70;99.90;;;;;;5071357;28;20463;-88
2021/09/14 07:29:16;;;;;;;382.50;355.03;;;16.70;99.90;;;;;;5072774;28;20166;-89
2021/09/14 07:31:44;;;;;;;369.93;344.17;;;16.70;99.90;;;;;;5071423;28;20164;-88
2021/09/14 07:34:09;;;;;;;384.63;357.23;;;16.70;99.90;;;;;;5072729;28;20639;-88
2021/09/14 07:36:35;;;;;;;386.70;359.73;;;16.70;99.90;;;;;;5072798;28;20422;-88
2021/09/14 07:39:01;;;;;;;350.97;326.50;;;16.70;99.90;;;;;;5075409;28;20242;-88
2021/09/14 07:41:32;;;;;;;370.47;343.77;;;16.80;99.90;;;;;;5076443;28;20194;-89
2021/09/14 07:43:58;;;;;;;385.00;358.03;;;16.80;99.90;;;;;;5076589;28;20626;-88
2021/09/14 07:46:24;;;;;;;379.53;353.60;;;16.80;99.90;;;;;;5076157;28;20508;-88
2021/09/14 07:48:49;;;;;;;361.13;336.73;;;16.90;99.90;;;;;;5075010;28;20650;-88
2021/09/14 07:51:15;;;;;;;383.07;355.90;;;16.90;99.90;;;;;;5135244;23;20289;-84
2021/09/14 07:53:41;;;;;;;382.83;356.03;;;16.80;99.90;;;;;;5077523;28;20699;-84
2021/09/14 07:56:06;;;;;;;403.40;375.20;;;16.90;99.90;;;;;;5078011;28;20208;-83
2021/09/14 07:58:32;;;;;;;411.57;382.87;;;16.90;99.90;;;;;;5076900;28;20194;-84
2021/09/14 08:00:58;;;;;;;382.17;355.20;;;17.00;99.90;;;;;;5078172;28;20616;-85
2021/09/14 08:03:24;;;;;;;407.20;379.60;;;17.00;99.90;;;;;;5077227;28;20311;-84
2021/09/14 08:05:50;;;;;;;348.43;323.73;;;17.10;99.90;;;;;;5079266;28;20173;-84
2021/09/14 08:08:16;;;;;;;399.23;371.50;;;17.10;99.90;;;;;;5079641;28;20406;-85
2021/09/14 08:10:41;;;;;;;405.60;376.93;;;17.30;99.90;;;;;;5079140;28;20184;-83
2021/09/14 08:13:07;;;;;;;365.90;339.93;;;17.30;99.90;;;;;;5078491;28;20167;-84
2021/09/14 08:15:33;;;;;;;370.83;344.53;;;17.30;99.90;;;;;;5078130;28;20191;-84
2021/09/14 08:17:59;;;;;;;538.60;501.53;;;17.40;99.90;;;;;;5078592;28;20211;-84
2021/09/14 08:20:26;;;;;;;506.60;471.47;;;17.50;99.90;;;;;;5078381;28;20170;-84
2021/09/14 08:22:51;;;;;;;457.80;427.00;;;17.60;99.90;;;;;;5077309;28;20945;-84
2021/09/14 08:25:17;;;;;;;461.10;428.50;;;17.60;99.90;;;;;;5079061;28;20437;-84
2021/09/14 08:27:43;;;;;;;426.40;396.57;;;17.60;99.90;;;;;;5076421;28;20429;-84
2021/09/14 08:30:09;;;;;;;459.40;428.50;;;17.70;99.90;;;;;;5078251;28;20243;-85
2021/09/14 08:32:35;;;;;;;463.13;430.80;;;17.70;99.90;;;;;;5079086;28;20161;-84
2021/09/14 08:35:00;;;;;;;421.63;392.43;;;17.80;99.90;;;;;;5079350;28;20908;-83
2021/09/14 08:37:26;;;;;;;393.80;366.20;;;17.90;99.90;;;;;;5078183;28;20274;-84
2021/09/14 08:39:52;;;;;;;352.43;327.63;;;18.00;99.90;;;;;;5079741;28;20160;-84
2021/09/14 08:42:19;;;;;;;327.43;304.67;;;18.00;99.90;;;;;;5078211;28;20657;-83
2021/09/14 08:44:45;;;;;;;306.53;285.00;;;18.10;99.90;;;;;;5076989;28;20411;-83
2021/09/14 08:47:11;;;;;;;357.37;333.50;;;18.10;99.90;;;;;;5078033;28;20428;-83
2021/09/14 08:49:36;;;;;;;328.63;305.83;;;18.10;99.90;;;;;;5077445;28;20168;-83
2021/09/14 08:52:02;;;;;;;319.23;297.37;;;18.20;99.90;;;;;;5077544;28;20183;-84
2021/09/14 08:54:29;;;;;;;321.17;299.37;;;18.30;99.90;;;;;;5076513;28;20168;-84
2021/09/14 08:56:55;;;;;;;310.93;288.90;;;18.40;99.90;;;;;;5077606;28;20474;-84
2021/09/14 08:59:31;;;;;;;347.13;323.17;;;18.40;99.90;;;;;;5075847;28;20416;-83
2021/09/14 09:02:05;;;;;;;354.27;328.63;;;18.50;99.90;;;;;;5076245;28;20647;-84
2021/09/14 09:04:31;;;;;;;295.90;275.87;;;18.60;99.90;;;;;;5077704;28;20398;-84
2021/09/14 09:06:57;;;;;;;261.77;242.93;;;18.70;99.90;;;;;;5075961;28;20483;-84
2021/09/14 09:09:26;;;;;;;279.60;260.43;;;18.80;99.90;;;;;;5077464;28;20406;-84
2021/09/14 09:11:51;;;;;;;218.90;202.67;;;18.90;99.90;;;;;;5076989;28;20160;-83
2021/09/14 09:14:17;;;;;;;240.93;223.90;;;18.80;99.90;;;;;;5076105;28;20939;-84
2021/09/14 09:16:43;;;;;;;277.67;258.57;;;18.80;99.90;;;;;;5076899;28;20184;-85
2021/09/14 09:19:09;;;;;;;238.93;221.77;;;18.80;99.90;;;;;;5077079;28;20156;-84
2021/09/14 09:21:38;;;;;;;218.77;202.80;;;18.90;99.90;;;;;;5078005;28;20499;-85
2021/09/14 09:24:13;;;;;;;227.07;210.40;;;18.90;99.90;;;;;;5077727;28;20222;-85
2021/09/14 09:26:44;;;;;;;245.63;228.43;;;19.00;99.90;;;;;;5077446;28;20429;-85
2021/09/14 09:29:11;;;;;;;212.00;196.27;;;19.10;99.90;;;;;;5079083;28;20587;-85
2021/09/14 09:31:43;;;;;;;205.80;189.97;;;19.20;99.90;;;;;;5078169;28;20398;-85
2021/09/14 09:34:11;;;;;;;182.77;168.47;;;19.30;99.90;;;;;;5077168;28;20406;-85
2021/09/14 09:36:42;;;;;;;183.63;169.07;;;19.40;99.90;;;;;;5078013;28;20445;-86
2021/09/14 09:39:13;;;;;;;155.57;142.33;;;19.50;99.90;;;;;;5079068;28;20414;-85
2021/09/14 09:41:56;;;;;;;163.80;150.07;;;19.60;99.90;;;;;;5078259;28;20421;-85
2021/09/14 09:44:22;;;;;;;175.73;161.70;;;19.80;99.90;;;;;;5077507;28;20417;-85
2021/09/14 09:46:57;;;;;;;215.57;199.43;;;19.90;99.90;;;;;;5079403;28;20425;-85
2021/09/14 09:49:25;;;;;;;145.27;132.13;;;20.10;99.90;;;;;;5078719;28;20394;-85
2021/09/14 09:51:52;;;;;;;150.87;137.77;;;20.30;99.90;;;;;;5077968;28;20410;-85
2021/09/14 09:54:19;;;;;;;110.27;98.80;;;20.40;99.90;;;;;;5081212;28;20411;-86
2021/09/14 09:56:48;;;;;;;104.17;92.87;;;20.60;99.90;;;;;;5081180;28;20577;-86
2021/09/14 09:59:14;;;;;;;112.90;101.07;;;20.70;99.90;;;;;;5080659;28;20422;-86
2021/09/14 10:01:42;;;;;;;92.33;74.10;;;21.00;99.90;;;;;;5081187;28;20393;-87
2021/09/14 10:04:13;;;;;;;95.40;64.97;;;21.10;99.90;;;;;;5080187;28;20426;-86
2021/09/14 10:06:50;;;;;;;86.33;55.73;;;21.20;99.90;;;;;;5082669;28;20426;-87
2021/09/14 10:09:15;;;;;;;88.57;59.20;;;21.30;99.90;;;;;;5081866;28;20420;-86
2021/09/14 10:11:41;;;;;;;85.20;55.93;;;21.40;99.90;;;;;;5079969;28;20410;-87
2021/09/14 10:14:09;;;;;;;86.63;51.90;;;21.30;99.90;;;;;;5081530;28;20146;-86
2021/09/14 10:16:45;;;;;;;90.63;67.60;;;21.40;99.90;;;;;;5079791;28;20203;-87
2021/09/14 10:19:15;;;;;;;94.77;81.43;;;21.60;99.90;;;;;;5081616;28;20745;-87
2021/09/14 10:21:57;;;;;;;115.27;103.83;;;21.60;99.90;;;;;;5081348;28;20424;-87
2021/09/14 10:24:24;;;;;;;138.10;125.43;;;21.70;99.90;;;;;;5080119;28;20391;-86
2021/09/14 10:27:01;;;;;;;127.03;115.23;;;21.90;99.90;;;;;;5080137;28;20434;-87
2021/09/14 10:29:27;;;;;;;131.33;119.43;;;22.10;99.90;;;;;;5080183;28;20458;-87
2021/09/14 10:32:02;;;;;;;202.77;188.43;;;22.20;99.90;;;;;;5080757;28;20472;-87
2021/09/14 10:34:28;;;;;;;83.27;48.30;;;22.20;99.90;;;;;;5080569;28;20156;-87
2021/09/14 10:37:04;;;;;;;81.13;41.83;;;22.30;99.90;;;;;;5081614;28;20459;-88
2021/09/14 10:39:42;;;;;;;83.40;50.30;;;22.40;99.90;;;;;;5080971;28;20147;-87
2021/09/14 10:42:18;;;;;;;213.77;198.40;;;22.50;99.90;;;;;;5079365;28;20409;-87
2021/09/14 10:44:46;;;;;;;137.83;125.47;;;22.80;99.90;;;;;;5080802;28;20401;-87
2021/09/14 10:47:17;;;;;;;156.77;144.10;;;22.90;99.90;;;;;;5080384;28;20454;-87
2021/09/14 10:50:00;;;;;;;139.27;127.17;;;22.60;99.90;;;;;;5081361;28;20924;-87
2021/09/14 10:52:43;;;;;;;234.23;218.33;;;22.70;99.90;;;;;;5081731;28;20441;-87
2021/09/14 10:55:15;;;;;;;202.07;187.83;;;22.90;99.90;;;;;;5081352;28;20611;-87
2021/09/14 10:57:47;;;;;;;217.63;201.83;;;23.20;99.90;;;;;;5078773;28;20479;-87
2021/09/14 11:00:15;;;;;;;154.90;141.40;;;23.60;99.90;;;;;;5080780;28;20379;-87
2021/09/14 11:02:41;;;;;;;154.07;140.53;;;23.70;99.90;;;;;;5079908;28;20409;-87
2021/09/14 11:05:08;;;;;;;112.73;101.47;;;23.50;99.90;;;;;;5079654;28;20456;-87
2021/09/14 11:07:34;;;;;;;223.27;207.17;;;23.20;99.90;;;;;;5080034;28;20441;-87
2021/09/14 11:10:11;;;;;;;145.63;132.80;;;23.10;99.90;;;;;;5080945;28;20421;-87
2021/09/14 11:12:37;;;;;;;116.73;105.30;;;22.90;99.90;;;;;;5085260;28;20411;-87
2021/09/14 11:15:03;;;;;;;113.10;101.67;;;22.90;99.90;;;;;;5085935;28;20406;-86
2021/09/14 11:17:32;;;;;;;114.53;103.00;;;22.90;99.90;;;;;;5084656;28;20473;-87
2021/09/14 11:20:09;;;;;;;192.83;178.33;;;22.90;99.90;;;;;;5083162;28;20398;-87
2021/09/14 11:22:36;;;;;;;198.90;184.57;;;22.90;99.90;;;;;;5084138;28;20397;-87
2021/09/14 11:25:04;;;;;;;215.40;200.37;;;23.20;99.90;;;;;;5083852;28;20421;-87
2021/09/14 11:27:31;;;;;;;134.57;122.13;;;23.40;99.90;;;;;;5084608;28;20418;-87
2021/09/14 11:29:58;;;;;;;115.90;103.97;;;23.40;99.90;;;;;;5083029;28;20417;-87
2021/09/14 11:32:26;;;;;;;92.50;71.47;;;23.60;99.90;;;;;;5082813;28;20406;-87
2021/09/14 11:34:52;;;;;;;87.87;62.73;;;23.80;99.90;;;;;;5082509;28;20399;-86
2021/09/14 11:37:29;;;;;;;87.80;61.40;;;23.80;99.90;;;;;;5083267;28;20857;-88
2021/09/14 11:39:56;;;;;;;109.00;97.73;;;23.90;99.90;;;;;;5084115;28;20397;-87
2021/09/14 11:42:21;;;;;;;99.53;85.97;;;23.90;99.90;;;;;;5084754;28;20472;-87
2021/09/14 11:44:47;;;;;;;94.00;76.60;;;23.90;99.90;;;;;;5082539;28;20398;-87
2021/09/14 11:47:13;;;;;;;91.87;68.40;;;24.20;99.90;;;;;;5083088;28;20698;-87
2021/09/14 11:49:38;;;;;;;92.97;76.97;;;24.30;99.90;;;;;;5085744;28;20199;-87
2021/09/14 11:52:05;;;;;;;151.00;137.77;;;24.50;99.90;;;;;;5084680;28;20176;-87
2021/09/14 11:54:37;;;;;;;91.13;73.37;;;24.60;99.90;;;;;;5085084;28;20194;-87
2021/09/14 11:57:03;;;;;;;92.77;82.07;;;24.60;99.90;;;;;;5085061;28;20798;-87
2021/09/14 11:59:31;;;;;;;90.87;71.73;;;24.60;99.90;;;;;;5084846;28;20518;-87
2021/09/14 12:01:57;;;;;;;92.10;79.83;;;24.40;99.90;;;;;;5082837;28;20435;-86
2021/09/14 12:04:23;;;;;;;118.20;106.63;;;24.70;99.90;;;;;;5082340;28;20404;-87
2021/09/14 12:06:58;;;;;;;178.17;164.40;;;24.90;99.30;;;;;;5083032;28;20416;-86
2021/09/14 12:09:25;;;;;;;112.50;101.30;;;25.10;98.80;;;;;;5083935;28;20511;-87
2021/09/14 12:12:08;;;;;;;91.83;76.60;;;25.10;99.90;;;;;;5084751;28;20380;-87
2021/09/14 12:14:34;;;;;;;143.43;131.00;;;25.00;99.90;;;;;;5083551;28;20816;-87
2021/09/14 12:17:03;;;;;;;244.33;228.37;;;25.00;99.80;;;;;;5082605;28;20443;-87
2021/09/14 12:19:34;;;;;;;223.10;207.67;;;25.00;97.90;;;;;;5082447;28;20464;-88
2021/09/14 12:22:00;;;;;;;136.97;124.80;;;24.80;99.90;;;;;;5083599;28;20428;-87
2021/09/14 12:24:26;;;;;;;87.03;65.37;;;24.70;99.90;;;;;;5084240;28;20789;-87
2021/09/14 12:26:55;;;;;;;116.13;104.83;;;24.50;99.90;;;;;;5083771;28;20420;-87
2021/09/14 12:29:22;;;;;;;86.23;62.00;;;24.50;99.90;;;;;;5081366;28;20427;-87
2021/09/14 12:31:48;;;;;;;119.90;108.43;;;24.60;99.90;;;;;;5082225;28;20426;-87
2021/09/14 12:34:15;;;;;;;165.10;151.27;;;24.50;99.90;;;;;;5081638;28;20407;-87
2021/09/14 12:36:45;;;;;;;92.27;76.73;;;24.40;99.90;;;;;;5082147;28;20419;-87
2021/09/14 12:39:12;;;;;;;94.37;72.03;;;24.40;99.90;;;;;;5082463;28;20427;-87
2021/09/14 12:41:38;;;;;;;126.80;115.10;;;24.40;99.90;;;;;;5080645;28;20415;-87
2021/09/14 12:44:05;;;;;;;199.03;184.73;;;24.40;99.90;;;;;;5080709;28;20434;-87
2021/09/14 12:46:31;;;;;;;173.33;159.53;;;24.40;99.90;;;;;;5082746;28;20414;-87
2021/09/14 12:48:57;;;;;;;187.03;173.23;;;24.40;99.90;;;;;;5080547;28;20420;-87
2021/09/14 12:51:22;;;;;;;81.50;50.07;;;24.20;99.90;;;;;;5080410;28;20443;-87
2021/09/14 12:53:48;;;;;;;92.87;60.20;;;24.20;99.90;;;;;;5080020;28;20402;-86
2021/09/14 12:56:14;;;;;;;79.37;43.83;;;24.30;99.90;;;;;;5078282;28;20278;-86
2021/09/14 12:58:40;;;;;;;84.90;59.00;;;24.40;99.90;;;;;;5079458;28;20536;-86
2021/09/14 13:01:06;;;;;;;78.97;44.07;;;24.30;99.90;;;;;;5078337;28;20506;-86
2021/09/14 13:03:32;;;;;;;84.33;58.63;;;24.40;99.90;;;;;;5078788;28;20889;-86
2021/09/14 13:05:57;;;;;;;82.27;50.27;;;24.50;99.90;;;;;;5079117;28;20175;-86
2021/09/14 13:08:23;;;;;;;81.23;49.20;;;24.70;99.90;;;;;;5079401;28;20172;-86
2021/09/14 13:10:52;;;;;;;154.33;141.03;;;25.00;99.90;;;;;;5079384;28;20236;-86
2021/09/14 13:16:11;;;;;;;229.13;213.67;;;25.50;96.70;;;;;;5078739;28;20895;-86
2021/09/14 13:18:41;;;;;;;157.17;143.80;;;25.70;95.60;;;;;;5080045;28;20445;-87
2021/09/14 13:21:07;;;;;;;149.73;136.93;;;25.70;91.50;;;;;;5082988;28;20422;-87
2021/09/14 13:23:33;;;;;;;144.80;132.10;;;25.30;91.50;;;;;;5078979;28;20409;-86
2021/09/14 13:25:59;;;;;;;197.33;182.97;;;25.00;96.10;;;;;;5077929;28;20461;-86
2021/09/14 13:28:25;;;;;;;198.03;183.87;;;24.90;99.00;;;;;;5080203;28;20409;-86
2021/09/14 13:30:51;;;;;;;201.30;186.70;;;24.80;99.50;;;;;;5079006;28;20633;-86
2021/09/14 13:33:17;;;;;;;214.87;200.07;;;24.90;99.90;;;;;;5079479;28;20250;-86
2021/09/14 13:35:43;;;;;;;127.33;115.73;;;24.90;99.90;;;;;;5077485;28;20412;-86
2021/09/14 13:38:09;;;;;;;133.80;121.83;;;25.00;99.90;;;;;;5077730;28;21038;-86
2021/09/14 13:40:36;;;;;;;86.33;61.77;;;25.10;99.90;;;;;;5079580;28;20170;-86
2021/09/14 13:43:02;;;;;;;169.57;156.20;;;25.10;99.90;;;;;;5078404;28;20167;-86
2021/09/14 13:48:17;;;;;;;197.57;183.27;;;25.00;99.90;;;;;;5078708;28;20189;-85
2021/09/14 13:53:24;;;;;;;113.90;102.30;;;25.10;99.90;;;;;;5101288;23;20534;-83
2021/09/14 13:55:53;;;;;;;79.70;43.33;;;24.90;99.90;;;;;;5076035;28;20427;-84
2021/09/14 13:58:24;;;;;;;83.10;54.07;;;24.80;99.90;;;;;;5075517;28;20444;-85
2021/09/14 14:01:00;;;;;;;81.07;46.17;;;24.90;99.90;;;;;;5075610;28;20396;-84
2021/09/14 14:04:03;;;;;;;80.03;43.77;;;24.70;99.90;;;;;;5074952;28;20401;-84
2021/09/14 14:06:31;;;;;;;76.00;35.23;;;24.60;99.90;;;;;;5075449;28;20790;-84
2021/09/14 14:09:26;;;;;;;76.30;34.77;;;24.60;99.90;;;;;;5075911;28;20407;-85
2021/09/14 14:12:23;;;;;;;78.40;37.47;;;24.50;99.90;;;;;;4995317;28;20470;-84
2021/09/14 14:15:06;;;;;;;77.30;37.70;;;24.60;99.90;;;;;;4978073;28;20444;-84
2021/09/14 14:17:48;;;;;;;74.97;30.00;;;24.80;99.90;;;;;;4994386;28;20536;-84
2021/09/14 14:20:36;;;;;;;79.10;34.70;;;24.70;99.90;;;;;;4978889;28;20411;-84
2021/09/14 14:23:22;;;;;;;75.87;34.67;;;24.70;99.90;;;;;;4994816;28;20414;-84
2021/09/14 14:25:47;;;;;;;75.40;34.87;;;24.70;99.90;;;;;;4973999;28;20533;-83
2021/09/14 14:28:17;;;;;;;78.27;37.50;;;24.70;99.90;;;;;;4986779;28;20816;-84
2021/09/14 14:30:46;;;;;;;80.70;43.43;;;24.70;99.90;;;;;;5076691;28;20478;-85
2021/09/14 14:33:29;;;;;;;80.23;38.17;;;24.60;99.90;;;;;;5075319;28;21000;-85
2021/09/14 14:36:04;;;;;;;77.30;35.10;;;24.40;99.90;;;;;;5075728;28;20419;-85
2021/09/14 14:38:52;;;;;;;79.40;42.70;;;24.40;99.90;;;;;;5075997;28;20441;-84
2021/09/14 14:41:28;;;;;;;76.77;36.27;;;24.40;99.90;;;;;;5074981;28;20977;-84
2021/09/14 14:46:56;;;;;;;80.57;43.37;;;24.40;99.90;;;;;;5059450;28;20440;-84
2021/09/14 14:49:22;;;;;;;80.53;46.07;;;24.40;99.90;;;;;;5075681;28;20398;-84
2021/09/14 14:51:50;;;;;;;78.83;40.40;;;24.50;99.90;;;;;;5074036;28;20426;-84
2021/09/14 14:54:19;;;;;;;78.30;36.97;;;24.40;99.90;;;;;;5076613;28;20214;-84
2021/09/14 15:00:55;;;;;;;;;;;;;;;;;;;;;
2021/09/14 15:03:32;;;;;;;102.13;90.17;;;24.30;99.90;;;;;;5001951;28;20414;-84
2021/09/14 15:06:03;;;;;;;85.57;55.50;;;24.30;99.90;;;;;;5074280;28;20499;-84
2021/09/14 15:08:52;;;;;;;157.37;144.07;;;24.40;99.90;;;;;;5075018;28;20425;-85
2021/09/14 15:11:43;;;;;;;88.10;57.03;;;24.30;99.90;;;;;;5067175;28;20913;-86
2021/09/14 15:14:45;;;;;;;82.40;49.00;;;24.20;99.90;;;;;;5074463;28;20418;-85
2021/09/14 15:17:20;;;;;;;118.40;106.37;;;24.10;99.90;;;;;;5076686;28;20804;-85
2021/09/14 15:29:52;;;;;;;165.50;152.03;;;23.90;99.90;;;;;;4994497;28;20413;-84
2021/09/14 15:36:02;;;;;;;;;;;;;;;;;;;;;
2021/09/14 15:42:49;;;;;;;146.40;133.97;;;23.70;99.90;;;;;;4995715;28;20410;-84
2021/09/14 15:45:56;;;;;;;106.77;95.53;;;23.70;99.90;;;;;;4936117;28;20827;-84
2021/09/14 15:55:07;;;;;;;104.87;93.47;;;23.50;99.90;;;;;;5070768;28;20429;-84
2021/09/14 15:57:40;;;;;;;91.23;59.83;;;23.50;99.90;;;;;;5074695;28;20464;-84
2021/09/14 16:00:23;;;;;;;89.57;55.63;;;23.50;99.90;;;;;;5076534;28;20497;-84
2021/09/14 16:03:05;;;;;;;86.20;53.00;;;23.50;99.90;;;;;;5077531;28;20738;-85